sensor_id;sensor_type;location;lat;lon;timestamp;P1;durP1;ratioP1;P2;durP2;ratioP2
64351;SDS011;50680;52.626;-8.668;2023-07-20T00:01:51;23.63;;;12.38;;
64351;SDS011;50680;52.626;-8.668;2023-07-20T00:04:18;26.48;;;11.85;;
64351;SDS011;50680;52.626;-8.668;2023-07-20T00:06:45;28.55;;;12.98;;
64351;SDS011;50680;52.626;-8.668;2023-07-20T00:09:12;21.10;;;11.82;;
64351;SDS011;50680;52.626;-8.668;2023-07-20T00:11:40;19.98;;;11.27;;
64351;SDS011;50680;52.626;-8.668;2023-07-20T00:14:15;20.85;;;11.82;;
64351;SDS011;50680;52.626;-8.668;2023-07-20T00:16:42;20.70;;;11.95;;
64351;SDS011;50680;52.626;-8.668;2023-07-20T00:19:09;26.73;;;12.43;;
64351;SDS011;50680;52.626;-8.668;2023-07-20T00:21:36;24.48;;;12.63;;
64351;SDS011;50680;52.626;-8.668;2023-07-20T00:24:06;30.88;;;12.65;;
64351;SDS011;50680;52.626;-8.668;2023-07-20T00:26:33;25.48;;;12.95;;
64351;SDS011;50680;52.626;-8.668;2023-07-20T00:29:00;25.77;;;12.25;;
64351;SDS011;50680;52.626;-8.668;2023-07-20T00:31:27;18.55;;;11.68;;
64351;SDS011;50680;52.626;-8.668;2023-07-20T00:33:55;26.40;;;11.80;;
64351;SDS011;50680;52.626;-8.668;2023-07-20T00:36:22;21.50;;;12.05;;
64351;SDS011;50680;52.626;-8.668;2023-07-20T00:38:50;24.60;;;12.48;;
64351;SDS011;50680;52.626;-8.668;2023-07-20T00:41:17;22.20;;;12.18;;
64351;SDS011;50680;52.626;-8.668;2023-07-20T00:43:44;26.48;;;11.52;;
64351;SDS011;50680;52.626;-8.668;2023-07-20T00:46:10;25.90;;;11.75;;
64351;SDS011;50680;52.626;-8.668;2023-07-20T00:48:39;23.70;;;12.50;;
64351;SDS011;50680;52.626;-8.668;2023-07-20T00:51:08;20.80;;;12.38;;
64351;SDS011;50680;52.626;-8.668;2023-07-20T00:53:35;26.17;;;13.73;;
64351;SDS011;50680;52.626;-8.668;2023-07-20T00:56:02;25.15;;;13.35;;
64351;SDS011;50680;52.626;-8.668;2023-07-20T00:58:30;21.95;;;12.88;;
64351;SDS011;50680;52.626;-8.668;2023-07-20T01:00:57;25.33;;;14.07;;
64351;SDS011;50680;52.626;-8.668;2023-07-20T01:03:24;26.13;;;13.18;;
64351;SDS011;50680;52.626;-8.668;2023-07-20T01:05:54;24.08;;;12.88;;
64351;SDS011;50680;52.626;-8.668;2023-07-20T01:08:37;24.23;;;13.63;;
64351;SDS011;50680;52.626;-8.668;2023-07-20T01:11:12;27.15;;;14.02;;
64351;SDS011;50680;52.626;-8.668;2023-07-20T01:13:47;24.80;;;13.65;;
64351;SDS011;50680;52.626;-8.668;2023-07-20T01:16:15;27.25;;;13.32;;
64351;SDS011;50680;52.626;-8.668;2023-07-20T01:18:42;25.88;;;13.80;;
64351;SDS011;50680;52.626;-8.668;2023-07-20T01:21:09;26.02;;;14.10;;
64351;SDS011;50680;52.626;-8.668;2023-07-20T01:29:11;27.33;;;13.70;;
64351;SDS011;50680;52.626;-8.668;2023-07-20T01:31:51;24.42;;;13.25;;
64351;SDS011;50680;52.626;-8.668;2023-07-20T01:34:19;20.33;;;12.35;;
64351;SDS011;50680;52.626;-8.668;2023-07-20T01:36:50;28.00;;;12.77;;
64351;SDS011;50680;52.626;-8.668;2023-07-20T01:39:20;30.75;;;14.70;;
64351;SDS011;50680;52.626;-8.668;2023-07-20T01:41:48;23.75;;;12.75;;
64351;SDS011;50680;52.626;-8.668;2023-07-20T01:44:15;23.10;;;14.02;;
64351;SDS011;50680;52.626;-8.668;2023-07-20T01:46:42;26.50;;;13.80;;
64351;SDS011;50680;52.626;-8.668;2023-07-20T01:49:09;24.00;;;13.77;;
64351;SDS011;50680;52.626;-8.668;2023-07-20T01:51:36;24.65;;;12.75;;
64351;SDS011;50680;52.626;-8.668;2023-07-20T01:54:03;27.63;;;13.40;;
64351;SDS011;50680;52.626;-8.668;2023-07-20T01:56:30;28.25;;;13.88;;
64351;SDS011;50680;52.626;-8.668;2023-07-20T01:58:57;30.30;;;14.93;;
64351;SDS011;50680;52.626;-8.668;2023-07-20T02:01:24;26.77;;;13.43;;
64351;SDS011;50680;52.626;-8.668;2023-07-20T02:03:51;29.15;;;13.88;;
64351;SDS011;50680;52.626;-8.668;2023-07-20T02:06:17;25.40;;;14.35;;
64351;SDS011;50680;52.626;-8.668;2023-07-20T02:08:44;30.98;;;14.95;;
64351;SDS011;50680;52.626;-8.668;2023-07-20T02:11:11;25.73;;;13.80;;
64351;SDS011;50680;52.626;-8.668;2023-07-20T02:13:38;23.88;;;13.88;;
64351;SDS011;50680;52.626;-8.668;2023-07-20T02:16:05;31.80;;;15.23;;
64351;SDS011;50680;52.626;-8.668;2023-07-20T02:18:32;26.48;;;14.23;;
64351;SDS011;50680;52.626;-8.668;2023-07-20T02:20:59;28.38;;;14.57;;
64351;SDS011;50680;52.626;-8.668;2023-07-20T02:23:26;32.95;;;14.38;;
64351;SDS011;50680;52.626;-8.668;2023-07-20T02:25:53;31.02;;;14.52;;
64351;SDS011;50680;52.626;-8.668;2023-07-20T02:28:20;28.63;;;13.73;;
64351;SDS011;50680;52.626;-8.668;2023-07-20T02:30:47;39.35;;;15.68;;
64351;SDS011;50680;52.626;-8.668;2023-07-20T02:33:15;25.83;;;14.02;;
64351;SDS011;50680;52.626;-8.668;2023-07-20T02:35:42;25.42;;;13.90;;
64351;SDS011;50680;52.626;-8.668;2023-07-20T02:38:09;23.73;;;13.60;;
64351;SDS011;50680;52.626;-8.668;2023-07-20T02:40:36;24.27;;;13.25;;
64351;SDS011;50680;52.626;-8.668;2023-07-20T02:43:03;26.83;;;14.75;;
64351;SDS011;50680;52.626;-8.668;2023-07-20T02:45:30;25.08;;;14.48;;
64351;SDS011;50680;52.626;-8.668;2023-07-20T02:47:57;29.67;;;15.57;;
64351;SDS011;50680;52.626;-8.668;2023-07-20T02:50:24;33.83;;;16.17;;
64351;SDS011;50680;52.626;-8.668;2023-07-20T02:52:51;27.55;;;15.13;;
64351;SDS011;50680;52.626;-8.668;2023-07-20T02:55:18;30.63;;;14.70;;
64351;SDS011;50680;52.626;-8.668;2023-07-20T02:57:45;26.92;;;16.13;;
64351;SDS011;50680;52.626;-8.668;2023-07-20T03:00:12;28.58;;;15.07;;
64351;SDS011;50680;52.626;-8.668;2023-07-20T03:02:42;28.70;;;14.45;;
64351;SDS011;50680;52.626;-8.668;2023-07-20T03:05:09;28.70;;;14.20;;
64351;SDS011;50680;52.626;-8.668;2023-07-20T03:07:36;26.23;;;14.48;;
64351;SDS011;50680;52.626;-8.668;2023-07-20T03:10:03;26.05;;;13.90;;
64351;SDS011;50680;52.626;-8.668;2023-07-20T03:12:31;29.65;;;13.85;;
64351;SDS011;50680;52.626;-8.668;2023-07-20T03:15:00;27.80;;;14.57;;
64351;SDS011;50680;52.626;-8.668;2023-07-20T03:17:28;23.73;;;13.32;;
64351;SDS011;50680;52.626;-8.668;2023-07-20T03:19:54;26.85;;;12.75;;
64351;SDS011;50680;52.626;-8.668;2023-07-20T03:22:21;23.77;;;13.10;;
64351;SDS011;50680;52.626;-8.668;2023-07-20T03:24:48;23.20;;;12.18;;
64351;SDS011;50680;52.626;-8.668;2023-07-20T03:27:15;25.67;;;12.57;;
64351;SDS011;50680;52.626;-8.668;2023-07-20T03:29:42;20.77;;;12.77;;
64351;SDS011;50680;52.626;-8.668;2023-07-20T03:32:09;27.55;;;13.68;;
64351;SDS011;50680;52.626;-8.668;2023-07-20T03:34:37;25.08;;;12.02;;
64351;SDS011;50680;52.626;-8.668;2023-07-20T03:37:04;23.48;;;12.23;;
64351;SDS011;50680;52.626;-8.668;2023-07-20T03:39:31;26.58;;;13.48;;
64351;SDS011;50680;52.626;-8.668;2023-07-20T03:41:58;22.50;;;12.68;;
64351;SDS011;50680;52.626;-8.668;2023-07-20T03:44:25;20.13;;;10.60;;
64351;SDS011;50680;52.626;-8.668;2023-07-20T03:46:53;22.15;;;11.70;;
64351;SDS011;50680;52.626;-8.668;2023-07-20T03:49:20;18.40;;;11.52;;
64351;SDS011;50680;52.626;-8.668;2023-07-20T03:51:47;113.57;;;12.07;;
64351;SDS011;50680;52.626;-8.668;2023-07-20T03:54:14;41.10;;;8.60;;
64351;SDS011;50680;52.626;-8.668;2023-07-20T03:56:41;17.75;;;9.68;;
64351;SDS011;50680;52.626;-8.668;2023-07-20T03:59:08;21.40;;;10.50;;
64351;SDS011;50680;52.626;-8.668;2023-07-20T04:01:35;245.82;;;17.95;;
64351;SDS011;50680;52.626;-8.668;2023-07-20T04:04:07;32.22;;;9.57;;
64351;SDS011;50680;52.626;-8.668;2023-07-20T04:09:02;13.13;;;7.22;;
64351;SDS011;50680;52.626;-8.668;2023-07-20T04:11:31;17.80;;;9.13;;
64351;SDS011;50680;52.626;-8.668;2023-07-20T04:13:58;26.00;;;11.90;;
64351;SDS011;50680;52.626;-8.668;2023-07-20T04:16:25;31.63;;;12.98;;
64351;SDS011;50680;52.626;-8.668;2023-07-20T04:18:56;24.55;;;12.25;;
64351;SDS011;50680;52.626;-8.668;2023-07-20T04:21:25;22.63;;;11.10;;
64351;SDS011;50680;52.626;-8.668;2023-07-20T04:23:54;29.63;;;13.30;;
64351;SDS011;50680;52.626;-8.668;2023-07-20T04:26:21;23.77;;;11.30;;
64351;SDS011;50680;52.626;-8.668;2023-07-20T04:28:48;51.28;;;12.43;;
64351;SDS011;50680;52.626;-8.668;2023-07-20T04:31:17;210.07;;;14.25;;
64351;SDS011;50680;52.626;-8.668;2023-07-20T04:33:44;21.60;;;8.68;;
64351;SDS011;50680;52.626;-8.668;2023-07-20T04:36:10;17.67;;;8.18;;
64351;SDS011;50680;52.626;-8.668;2023-07-20T04:38:37;85.30;;;10.25;;
64351;SDS011;50680;52.626;-8.668;2023-07-20T04:41:04;28.13;;;12.77;;
64351;SDS011;50680;52.626;-8.668;2023-07-20T04:43:31;30.23;;;11.93;;
64351;SDS011;50680;52.626;-8.668;2023-07-20T04:45:58;36.30;;;13.88;;
64351;SDS011;50680;52.626;-8.668;2023-07-20T04:48:25;30.50;;;14.27;;
64351;SDS011;50680;52.626;-8.668;2023-07-20T04:50:52;32.10;;;11.65;;
64351;SDS011;50680;52.626;-8.668;2023-07-20T04:53:19;36.90;;;14.98;;
64351;SDS011;50680;52.626;-8.668;2023-07-20T04:55:49;45.40;;;17.23;;
64351;SDS011;50680;52.626;-8.668;2023-07-20T04:58:19;46.80;;;16.25;;
64351;SDS011;50680;52.626;-8.668;2023-07-20T05:00:48;41.55;;;14.35;;
64351;SDS011;50680;52.626;-8.668;2023-07-20T05:03:16;35.03;;;14.75;;
64351;SDS011;50680;52.626;-8.668;2023-07-20T05:05:43;40.90;;;15.82;;
64351;SDS011;50680;52.626;-8.668;2023-07-20T05:08:14;38.80;;;15.48;;
64351;SDS011;50680;52.626;-8.668;2023-07-20T05:10:41;39.08;;;16.13;;
64351;SDS011;50680;52.626;-8.668;2023-07-20T05:13:08;44.55;;;16.60;;
64351;SDS011;50680;52.626;-8.668;2023-07-20T05:15:35;39.67;;;16.35;;
64351;SDS011;50680;52.626;-8.668;2023-07-20T05:18:02;40.22;;;16.38;;
64351;SDS011;50680;52.626;-8.668;2023-07-20T05:20:29;37.17;;;15.05;;
64351;SDS011;50680;52.626;-8.668;2023-07-20T05:22:58;29.75;;;11.90;;
64351;SDS011;50680;52.626;-8.668;2023-07-20T05:25:26;31.98;;;13.57;;
64351;SDS011;50680;52.626;-8.668;2023-07-20T05:27:56;32.65;;;13.23;;
64351;SDS011;50680;52.626;-8.668;2023-07-20T05:30:23;30.42;;;13.70;;
64351;SDS011;50680;52.626;-8.668;2023-07-20T05:32:50;29.67;;;13.80;;
64351;SDS011;50680;52.626;-8.668;2023-07-20T05:35:19;29.08;;;14.00;;
64351;SDS011;50680;52.626;-8.668;2023-07-20T05:37:46;28.52;;;14.18;;
64351;SDS011;50680;52.626;-8.668;2023-07-20T05:40:14;27.27;;;13.23;;
64351;SDS011;50680;52.626;-8.668;2023-07-20T05:42:45;28.67;;;12.45;;
64351;SDS011;50680;52.626;-8.668;2023-07-20T05:45:14;26.05;;;12.65;;
64351;SDS011;50680;52.626;-8.668;2023-07-20T05:47:41;29.08;;;12.07;;
64351;SDS011;50680;52.626;-8.668;2023-07-20T05:50:08;19.00;;;10.50;;
64351;SDS011;50680;52.626;-8.668;2023-07-20T05:52:36;29.35;;;10.93;;
64351;SDS011;50680;52.626;-8.668;2023-07-20T05:55:05;20.67;;;10.75;;
64351;SDS011;50680;52.626;-8.668;2023-07-20T05:57:33;18.63;;;9.73;;
64351;SDS011;50680;52.626;-8.668;2023-07-20T06:00:01;17.90;;;9.52;;
64351;SDS011;50680;52.626;-8.668;2023-07-20T06:02:29;19.92;;;9.63;;
64351;SDS011;50680;52.626;-8.668;2023-07-20T06:04:56;20.55;;;10.43;;
64351;SDS011;50680;52.626;-8.668;2023-07-20T06:07:23;17.08;;;10.45;;
64351;SDS011;50680;52.626;-8.668;2023-07-20T06:09:50;20.73;;;9.68;;
64351;SDS011;50680;52.626;-8.668;2023-07-20T06:12:17;18.92;;;9.77;;
64351;SDS011;50680;52.626;-8.668;2023-07-20T06:14:44;18.13;;;9.35;;
64351;SDS011;50680;52.626;-8.668;2023-07-20T06:17:11;14.05;;;8.52;;
64351;SDS011;50680;52.626;-8.668;2023-07-20T06:19:38;16.17;;;9.07;;
64351;SDS011;50680;52.626;-8.668;2023-07-20T06:22:05;14.63;;;8.70;;
64351;SDS011;50680;52.626;-8.668;2023-07-20T06:24:32;15.98;;;8.70;;
64351;SDS011;50680;52.626;-8.668;2023-07-20T06:26:59;19.08;;;9.02;;
64351;SDS011;50680;52.626;-8.668;2023-07-20T06:29:26;13.77;;;8.13;;
64351;SDS011;50680;52.626;-8.668;2023-07-20T06:31:52;16.48;;;9.35;;
64351;SDS011;50680;52.626;-8.668;2023-07-20T06:34:19;14.93;;;9.48;;
64351;SDS011;50680;52.626;-8.668;2023-07-20T06:36:49;16.83;;;8.90;;
64351;SDS011;50680;52.626;-8.668;2023-07-20T06:39:16;18.50;;;8.70;;
64351;SDS011;50680;52.626;-8.668;2023-07-20T06:41:46;13.40;;;8.60;;
64351;SDS011;50680;52.626;-8.668;2023-07-20T06:44:13;15.63;;;8.45;;
64351;SDS011;50680;52.626;-8.668;2023-07-20T06:46:40;15.15;;;8.10;;
64351;SDS011;50680;52.626;-8.668;2023-07-20T06:49:07;13.57;;;8.20;;
64351;SDS011;50680;52.626;-8.668;2023-07-20T06:51:37;12.77;;;7.75;;
64351;SDS011;50680;52.626;-8.668;2023-07-20T06:54:04;13.50;;;8.57;;
64351;SDS011;50680;52.626;-8.668;2023-07-20T06:56:31;12.27;;;8.25;;
64351;SDS011;50680;52.626;-8.668;2023-07-20T06:58:59;12.93;;;7.82;;
64351;SDS011;50680;52.626;-8.668;2023-07-20T07:01:26;16.75;;;8.85;;
64351;SDS011;50680;52.626;-8.668;2023-07-20T07:03:53;10.55;;;8.00;;
64351;SDS011;50680;52.626;-8.668;2023-07-20T07:06:21;13.80;;;8.25;;
64351;SDS011;50680;52.626;-8.668;2023-07-20T07:08:50;11.88;;;8.75;;
64351;SDS011;50680;52.626;-8.668;2023-07-20T07:11:17;12.98;;;8.32;;
64351;SDS011;50680;52.626;-8.668;2023-07-20T07:13:44;12.73;;;8.10;;
64351;SDS011;50680;52.626;-8.668;2023-07-20T07:16:13;13.23;;;8.32;;
64351;SDS011;50680;52.626;-8.668;2023-07-20T07:18:46;12.30;;;7.93;;
64351;SDS011;50680;52.626;-8.668;2023-07-20T07:21:13;17.10;;;8.93;;
64351;SDS011;50680;52.626;-8.668;2023-07-20T07:23:40;14.30;;;8.48;;
64351;SDS011;50680;52.626;-8.668;2023-07-20T07:26:07;13.77;;;7.97;;
64351;SDS011;50680;52.626;-8.668;2023-07-20T07:28:35;16.25;;;8.60;;
64351;SDS011;50680;52.626;-8.668;2023-07-20T07:31:05;12.88;;;7.68;;
64351;SDS011;50680;52.626;-8.668;2023-07-20T07:33:33;11.98;;;7.88;;
64351;SDS011;50680;52.626;-8.668;2023-07-20T07:36:01;13.82;;;7.65;;
64351;SDS011;50680;52.626;-8.668;2023-07-20T07:38:28;11.25;;;7.53;;
64351;SDS011;50680;52.626;-8.668;2023-07-20T07:41:15;15.02;;;8.10;;
64351;SDS011;50680;52.626;-8.668;2023-07-20T07:43:42;14.63;;;7.97;;
64351;SDS011;50680;52.626;-8.668;2023-07-20T07:46:09;13.93;;;7.68;;
64351;SDS011;50680;52.626;-8.668;2023-07-20T07:48:36;13.40;;;7.38;;
64351;SDS011;50680;52.626;-8.668;2023-07-20T07:51:03;15.40;;;6.78;;
64351;SDS011;50680;52.626;-8.668;2023-07-20T07:53:30;14.48;;;7.47;;
64351;SDS011;50680;52.626;-8.668;2023-07-20T07:55:58;13.50;;;7.32;;
64351;SDS011;50680;52.626;-8.668;2023-07-20T07:58:25;17.35;;;8.73;;
64351;SDS011;50680;52.626;-8.668;2023-07-20T08:00:52;16.50;;;8.35;;
64351;SDS011;50680;52.626;-8.668;2023-07-20T08:03:19;18.40;;;9.60;;
64351;SDS011;50680;52.626;-8.668;2023-07-20T08:05:47;18.55;;;9.50;;
64351;SDS011;50680;52.626;-8.668;2023-07-20T08:08:14;15.88;;;9.00;;
64351;SDS011;50680;52.626;-8.668;2023-07-20T08:10:41;13.85;;;9.75;;
64351;SDS011;50680;52.626;-8.668;2023-07-20T08:13:09;24.60;;;9.70;;
64351;SDS011;50680;52.626;-8.668;2023-07-20T08:15:36;22.83;;;8.73;;
64351;SDS011;50680;52.626;-8.668;2023-07-20T08:18:03;18.42;;;8.50;;
64351;SDS011;50680;52.626;-8.668;2023-07-20T08:20:31;13.60;;;7.82;;
64351;SDS011;50680;52.626;-8.668;2023-07-20T08:22:58;14.00;;;6.70;;
64351;SDS011;50680;52.626;-8.668;2023-07-20T08:25:26;11.65;;;6.68;;
64351;SDS011;50680;52.626;-8.668;2023-07-20T08:27:53;15.63;;;6.60;;
64351;SDS011;50680;52.626;-8.668;2023-07-20T08:30:21;11.20;;;6.70;;
64351;SDS011;50680;52.626;-8.668;2023-07-20T08:32:50;12.68;;;6.75;;
64351;SDS011;50680;52.626;-8.668;2023-07-20T08:35:17;15.07;;;7.20;;
64351;SDS011;50680;52.626;-8.668;2023-07-20T08:40:15;10.05;;;7.07;;
64351;SDS011;50680;52.626;-8.668;2023-07-20T08:42:43;12.60;;;7.10;;
64351;SDS011;50680;52.626;-8.668;2023-07-20T08:45:11;12.13;;;7.00;;
64351;SDS011;50680;52.626;-8.668;2023-07-20T08:47:40;11.57;;;6.65;;
64351;SDS011;50680;52.626;-8.668;2023-07-20T08:50:09;12.13;;;6.38;;
64351;SDS011;50680;52.626;-8.668;2023-07-20T08:52:37;10.82;;;6.15;;
64351;SDS011;50680;52.626;-8.668;2023-07-20T08:55:04;11.30;;;6.82;;
64351;SDS011;50680;52.626;-8.668;2023-07-20T08:57:32;8.55;;;6.55;;
64351;SDS011;50680;52.626;-8.668;2023-07-20T09:00:02;12.45;;;6.65;;
64351;SDS011;50680;52.626;-8.668;2023-07-20T09:02:39;14.55;;;6.35;;
64351;SDS011;50680;52.626;-8.668;2023-07-20T09:05:09;11.15;;;6.60;;
64351;SDS011;50680;52.626;-8.668;2023-07-20T09:07:36;11.10;;;6.53;;
64351;SDS011;50680;52.626;-8.668;2023-07-20T09:10:04;16.83;;;6.45;;
64351;SDS011;50680;52.626;-8.668;2023-07-20T09:12:36;14.52;;;6.65;;
64351;SDS011;50680;52.626;-8.668;2023-07-20T09:15:04;12.98;;;6.88;;
64351;SDS011;50680;52.626;-8.668;2023-07-20T09:17:32;18.02;;;7.15;;
64351;SDS011;50680;52.626;-8.668;2023-07-20T09:20:03;13.38;;;7.63;;
64351;SDS011;50680;52.626;-8.668;2023-07-20T09:22:50;9.95;;;6.95;;
64351;SDS011;50680;52.626;-8.668;2023-07-20T09:25:19;8.30;;;5.70;;
64351;SDS011;50680;52.626;-8.668;2023-07-20T09:27:48;7.20;;;5.45;;
64351;SDS011;50680;52.626;-8.668;2023-07-20T09:30:18;14.30;;;6.85;;
64351;SDS011;50680;52.626;-8.668;2023-07-20T09:32:48;12.93;;;7.25;;
64351;SDS011;50680;52.626;-8.668;2023-07-20T09:35:21;12.77;;;7.25;;
64351;SDS011;50680;52.626;-8.668;2023-07-20T09:37:58;16.40;;;6.90;;
64351;SDS011;50680;52.626;-8.668;2023-07-20T09:40:29;11.32;;;6.63;;
64351;SDS011;50680;52.626;-8.668;2023-07-20T09:42:59;10.45;;;6.38;;
64351;SDS011;50680;52.626;-8.668;2023-07-20T09:45:33;16.20;;;6.75;;
64351;SDS011;50680;52.626;-8.668;2023-07-20T09:48:13;18.90;;;6.93;;
64351;SDS011;50680;52.626;-8.668;2023-07-20T09:50:43;14.35;;;7.38;;
64351;SDS011;50680;52.626;-8.668;2023-07-20T09:53:16;12.77;;;7.13;;
64351;SDS011;50680;52.626;-8.668;2023-07-20T09:55:47;13.68;;;7.40;;
64351;SDS011;50680;52.626;-8.668;2023-07-20T09:58:15;17.73;;;8.10;;
64351;SDS011;50680;52.626;-8.668;2023-07-20T10:00:42;10.40;;;7.10;;
64351;SDS011;50680;52.626;-8.668;2023-07-20T10:03:18;16.98;;;7.95;;
64351;SDS011;50680;52.626;-8.668;2023-07-20T10:05:47;12.33;;;7.27;;
64351;SDS011;50680;52.626;-8.668;2023-07-20T10:08:27;11.52;;;7.22;;
64351;SDS011;50680;52.626;-8.668;2023-07-20T10:10:59;12.57;;;7.55;;
64351;SDS011;50680;52.626;-8.668;2023-07-20T10:13:29;13.23;;;7.03;;
64351;SDS011;50680;52.626;-8.668;2023-07-20T10:15:59;18.85;;;7.38;;
64351;SDS011;50680;52.626;-8.668;2023-07-20T10:21:29;11.02;;;7.43;;
64351;SDS011;50680;52.626;-8.668;2023-07-20T10:23:59;13.45;;;7.45;;
64351;SDS011;50680;52.626;-8.668;2023-07-20T10:26:28;11.90;;;7.82;;
64351;SDS011;50680;52.626;-8.668;2023-07-20T10:28:55;15.38;;;7.78;;
64351;SDS011;50680;52.626;-8.668;2023-07-20T10:31:23;11.95;;;7.40;;
64351;SDS011;50680;52.626;-8.668;2023-07-20T10:33:52;13.02;;;6.78;;
64351;SDS011;50680;52.626;-8.668;2023-07-20T10:36:26;13.27;;;7.55;;
64351;SDS011;50680;52.626;-8.668;2023-07-20T10:38:57;11.25;;;7.03;;
64351;SDS011;50680;52.626;-8.668;2023-07-20T10:41:28;12.32;;;7.53;;
64351;SDS011;50680;52.626;-8.668;2023-07-20T10:44:02;11.57;;;7.82;;
64351;SDS011;50680;52.626;-8.668;2023-07-20T10:46:52;17.38;;;7.45;;
64351;SDS011;50680;52.626;-8.668;2023-07-20T10:49:25;10.20;;;6.55;;
64351;SDS011;50680;52.626;-8.668;2023-07-20T10:51:56;14.10;;;6.70;;
64351;SDS011;50680;52.626;-8.668;2023-07-20T10:56:57;12.90;;;7.30;;
64351;SDS011;50680;52.626;-8.668;2023-07-20T10:59:45;12.05;;;7.38;;
64351;SDS011;50680;52.626;-8.668;2023-07-20T11:02:17;21.83;;;7.65;;
64351;SDS011;50680;52.626;-8.668;2023-07-20T11:04:47;11.68;;;6.90;;
64351;SDS011;50680;52.626;-8.668;2023-07-20T11:07:16;10.65;;;6.43;;
64351;SDS011;50680;52.626;-8.668;2023-07-20T11:10:14;10.88;;;7.38;;
64351;SDS011;50680;52.626;-8.668;2023-07-20T11:15:53;16.27;;;8.25;;
64351;SDS011;50680;52.626;-8.668;2023-07-20T11:18:30;11.88;;;7.43;;
64351;SDS011;50680;52.626;-8.668;2023-07-20T11:20:59;12.00;;;7.45;;
64351;SDS011;50680;52.626;-8.668;2023-07-20T11:23:26;15.80;;;7.30;;
64351;SDS011;50680;52.626;-8.668;2023-07-20T11:25:54;14.50;;;7.22;;
64351;SDS011;50680;52.626;-8.668;2023-07-20T11:28:21;14.65;;;7.07;;
64351;SDS011;50680;52.626;-8.668;2023-07-20T11:30:50;11.68;;;7.22;;
64351;SDS011;50680;52.626;-8.668;2023-07-20T11:35:46;14.05;;;7.85;;
64351;SDS011;50680;52.626;-8.668;2023-07-20T11:38:13;10.32;;;6.97;;
64351;SDS011;50680;52.626;-8.668;2023-07-20T11:40:46;10.38;;;7.78;;
64351;SDS011;50680;52.626;-8.668;2023-07-20T11:43:13;11.55;;;7.20;;
64351;SDS011;50680;52.626;-8.668;2023-07-20T11:45:44;10.00;;;6.90;;
64351;SDS011;50680;52.626;-8.668;2023-07-20T11:48:15;12.90;;;6.82;;
64351;SDS011;50680;52.626;-8.668;2023-07-20T11:53:10;10.98;;;6.85;;
64351;SDS011;50680;52.626;-8.668;2023-07-20T11:55:37;8.75;;;5.30;;
64351;SDS011;50680;52.626;-8.668;2023-07-20T11:58:06;11.27;;;6.43;;
64351;SDS011;50680;52.626;-8.668;2023-07-20T12:00:35;14.60;;;6.57;;
64351;SDS011;50680;52.626;-8.668;2023-07-20T12:03:04;12.43;;;6.43;;
64351;SDS011;50680;52.626;-8.668;2023-07-20T12:05:34;7.10;;;2.40;;
64351;SDS011;50680;52.626;-8.668;2023-07-20T12:08:21;7.10;;;2.03;;
64351;SDS011;50680;52.626;-8.668;2023-07-20T12:10:49;6.20;;;2.10;;
64351;SDS011;50680;52.626;-8.668;2023-07-20T12:13:16;3.97;;;2.10;;
64351;SDS011;50680;52.626;-8.668;2023-07-20T12:15:43;7.35;;;1.67;;
64351;SDS011;50680;52.626;-8.668;2023-07-20T12:18:10;8.45;;;1.85;;
64351;SDS011;50680;52.626;-8.668;2023-07-20T12:20:38;6.53;;;1.30;;
64351;SDS011;50680;52.626;-8.668;2023-07-20T12:23:10;5.80;;;1.20;;
64351;SDS011;50680;52.626;-8.668;2023-07-20T12:28:12;5.80;;;1.40;;
64351;SDS011;50680;52.626;-8.668;2023-07-20T12:30:43;7.00;;;1.15;;
64351;SDS011;50680;52.626;-8.668;2023-07-20T12:33:11;9.15;;;0.75;;
64351;SDS011;50680;52.626;-8.668;2023-07-20T12:35:42;5.95;;;0.85;;
64351;SDS011;50680;52.626;-8.668;2023-07-20T12:38:10;4.32;;;0.98;;
64351;SDS011;50680;52.626;-8.668;2023-07-20T12:40:36;4.53;;;1.00;;
64351;SDS011;50680;52.626;-8.668;2023-07-20T12:43:03;3.17;;;0.80;;
64351;SDS011;50680;52.626;-8.668;2023-07-20T12:45:31;3.22;;;0.70;;
64351;SDS011;50680;52.626;-8.668;2023-07-20T12:47:58;2.75;;;0.80;;
64351;SDS011;50680;52.626;-8.668;2023-07-20T12:50:26;3.75;;;0.93;;
64351;SDS011;50680;52.626;-8.668;2023-07-20T12:52:53;3.25;;;1.00;;
64351;SDS011;50680;52.626;-8.668;2023-07-20T12:55:20;2.53;;;0.90;;
64351;SDS011;50680;52.626;-8.668;2023-07-20T12:57:47;2.50;;;0.98;;
64351;SDS011;50680;52.626;-8.668;2023-07-20T13:00:14;5.10;;;0.93;;
64351;SDS011;50680;52.626;-8.668;2023-07-20T13:02:42;4.50;;;0.85;;
64351;SDS011;50680;52.626;-8.668;2023-07-20T13:05:10;3.83;;;0.80;;
64351;SDS011;50680;52.626;-8.668;2023-07-20T13:07:37;4.30;;;0.95;;
64351;SDS011;50680;52.626;-8.668;2023-07-20T13:10:08;5.90;;;1.00;;
64351;SDS011;50680;52.626;-8.668;2023-07-20T13:12:37;2.83;;;0.80;;
64351;SDS011;50680;52.626;-8.668;2023-07-20T13:15:05;3.90;;;0.70;;
64351;SDS011;50680;52.626;-8.668;2023-07-20T13:17:34;5.78;;;1.27;;
64351;SDS011;50680;52.626;-8.668;2023-07-20T13:20:02;3.80;;;0.60;;
64351;SDS011;50680;52.626;-8.668;2023-07-20T13:22:33;6.35;;;0.70;;
64351;SDS011;50680;52.626;-8.668;2023-07-20T13:25:01;3.33;;;0.47;;
64351;SDS011;50680;52.626;-8.668;2023-07-20T13:27:29;9.52;;;0.90;;
64351;SDS011;50680;52.626;-8.668;2023-07-20T13:29:58;2.20;;;0.55;;
64351;SDS011;50680;52.626;-8.668;2023-07-20T13:32:29;1.58;;;0.40;;
64351;SDS011;50680;52.626;-8.668;2023-07-20T13:34:59;4.80;;;0.63;;
64351;SDS011;50680;52.626;-8.668;2023-07-20T13:37:27;1.35;;;0.40;;
64351;SDS011;50680;52.626;-8.668;2023-07-20T13:39:54;4.00;;;0.50;;
64351;SDS011;50680;52.626;-8.668;2023-07-20T13:42:23;5.88;;;0.50;;
64351;SDS011;50680;52.626;-8.668;2023-07-20T13:44:50;3.97;;;0.60;;
64351;SDS011;50680;52.626;-8.668;2023-07-20T13:47:17;3.22;;;0.40;;
64351;SDS011;50680;52.626;-8.668;2023-07-20T13:49:47;6.03;;;0.63;;
64351;SDS011;50680;52.626;-8.668;2023-07-20T13:52:14;2.08;;;0.43;;
64351;SDS011;50680;52.626;-8.668;2023-07-20T13:54:44;5.35;;;0.60;;
64351;SDS011;50680;52.626;-8.668;2023-07-20T13:57:15;1.83;;;0.50;;
64351;SDS011;50680;52.626;-8.668;2023-07-20T13:59:43;1.80;;;0.57;;
64351;SDS011;50680;52.626;-8.668;2023-07-20T14:02:10;4.32;;;0.63;;
64351;SDS011;50680;52.626;-8.668;2023-07-20T14:04:40;1.45;;;0.43;;
64351;SDS011;50680;52.626;-8.668;2023-07-20T14:07:08;3.67;;;0.47;;
64351;SDS011;50680;52.626;-8.668;2023-07-20T14:09:35;4.43;;;0.50;;
64351;SDS011;50680;52.626;-8.668;2023-07-20T14:12:03;3.15;;;0.70;;
64351;SDS011;50680;52.626;-8.668;2023-07-20T14:14:33;1.67;;;0.60;;
64351;SDS011;50680;52.626;-8.668;2023-07-20T14:17:00;14.75;;;0.88;;
64351;SDS011;50680;52.626;-8.668;2023-07-20T14:19:27;9.30;;;0.60;;
64351;SDS011;50680;52.626;-8.668;2023-07-20T14:21:54;5.80;;;0.70;;
64351;SDS011;50680;52.626;-8.668;2023-07-20T14:24:21;11.15;;;0.60;;
64351;SDS011;50680;52.626;-8.668;2023-07-20T14:26:48;4.32;;;0.60;;
64351;SDS011;50680;52.626;-8.668;2023-07-20T14:29:17;5.18;;;0.52;;
64351;SDS011;50680;52.626;-8.668;2023-07-20T14:31:45;4.90;;;0.50;;
64351;SDS011;50680;52.626;-8.668;2023-07-20T14:34:19;4.75;;;0.73;;
64351;SDS011;50680;52.626;-8.668;2023-07-20T14:36:46;3.15;;;0.50;;
64351;SDS011;50680;52.626;-8.668;2023-07-20T14:39:12;3.03;;;0.60;;
64351;SDS011;50680;52.626;-8.668;2023-07-20T14:41:40;2.20;;;0.50;;
64351;SDS011;50680;52.626;-8.668;2023-07-20T14:44:06;2.63;;;0.60;;
64351;SDS011;50680;52.626;-8.668;2023-07-20T14:46:33;2.90;;;0.65;;
64351;SDS011;50680;52.626;-8.668;2023-07-20T14:49:00;7.22;;;0.60;;
64351;SDS011;50680;52.626;-8.668;2023-07-20T14:51:29;6.15;;;0.40;;
64351;SDS011;50680;52.626;-8.668;2023-07-20T14:54:02;4.30;;;0.43;;